createdAt,value
2018-11-10T00:00:39.364Z,13.10
2018-11-10T00:01:46.358Z,12.00
2018-11-10T00:02:53.111Z,11.60
2018-11-10T00:03:59.880Z,13.70
2018-11-10T00:05:06.740Z,14.50
2018-11-10T00:06:13.554Z,12.00
2018-11-10T00:07:20.479Z,14.60
2018-11-10T00:08:27.401Z,15.70
2018-11-10T00:09:34.054Z,15.00
2018-11-10T00:10:40.861Z,12.20
2018-11-10T00:11:47.603Z,12.80
2018-11-10T00:12:54.401Z,14.60
2018-11-10T00:14:01.239Z,14.20
2018-11-10T00:15:08.106Z,15.60
2018-11-10T00:16:15.277Z,12.90
2018-11-10T00:17:22.131Z,14.70
2018-11-10T00:18:28.875Z,15.90
2018-11-10T00:19:35.588Z,14.70
2018-11-10T00:20:42.375Z,12.50
2018-11-10T00:21:49.115Z,16.20
2018-11-10T00:22:55.855Z,13.00
2018-11-10T00:24:02.603Z,14.90
2018-11-10T00:25:09.694Z,12.80
2018-11-10T00:26:16.721Z,14.60
2018-11-10T00:27:23.450Z,13.70
2018-11-10T00:28:30.178Z,13.90
2018-11-10T00:29:36.914Z,13.30
2018-11-10T00:30:43.623Z,16.40
2018-11-10T00:31:50.393Z,15.50
2018-11-10T00:32:57.158Z,12.20
2018-11-10T00:34:03.913Z,12.10
2018-11-10T00:35:10.650Z,13.40
2018-11-10T00:36:17.620Z,14.60
2018-11-10T00:37:24.386Z,15.00
2018-11-10T00:38:31.163Z,15.30
2018-11-10T00:39:37.924Z,13.20
2018-11-10T00:40:44.736Z,12.80
2018-11-10T00:41:51.670Z,13.30
2018-11-10T00:42:58.476Z,15.40
2018-11-10T00:44:05.265Z,12.10
2018-11-10T00:45:11.987Z,12.80
2018-11-10T00:46:18.775Z,14.40
2018-11-10T00:47:25.538Z,12.90
2018-11-10T00:48:32.329Z,13.90
2018-11-10T00:49:39.114Z,12.50
2018-11-10T00:50:45.893Z,14.90
2018-11-10T00:51:52.707Z,14.00
2018-11-10T00:52:59.573Z,11.60
2018-11-10T00:54:06.429Z,11.40
2018-11-10T00:55:13.191Z,13.50
2018-11-10T00:56:19.968Z,11.40
2018-11-10T00:57:26.802Z,13.00
2018-11-10T00:58:33.555Z,11.10
2018-11-10T00:59:40.339Z,12.30
2018-11-10T01:00:47.154Z,12.80
2018-11-10T01:01:53.941Z,12.60
2018-11-10T01:03:00.702Z,12.40
2018-11-10T01:04:07.526Z,14.30
2018-11-10T01:05:14.294Z,12.90
2018-11-10T01:06:21.085Z,12.50
2018-11-10T01:07:27.974Z,11.70
2018-11-10T01:08:34.742Z,13.30
2018-11-10T01:09:41.529Z,11.50
2018-11-10T01:10:48.347Z,13.40
2018-11-10T01:11:55.121Z,11.90
2018-11-10T01:13:01.887Z,12.00
2018-11-10T01:14:08.633Z,13.80
2018-11-10T01:15:15.379Z,11.20
2018-11-10T01:16:22.186Z,14.20
2018-11-10T01:17:29.023Z,12.00
2018-11-10T01:18:35.768Z,11.80
2018-11-10T01:19:42.539Z,12.80
2018-11-10T01:20:49.378Z,13.00
2018-11-10T01:21:56.175Z,12.70
2018-11-10T01:23:02.934Z,12.90
2018-11-10T01:24:09.742Z,11.00
2018-11-10T01:25:16.491Z,10.70
2018-11-10T01:26:23.270Z,10.70
2018-11-10T01:27:30.114Z,10.80
2018-11-10T01:28:36.897Z,11.00
2018-11-10T01:29:43.670Z,10.40
2018-11-10T01:30:50.442Z,11.90
2018-11-10T01:31:57.238Z,10.60
2018-11-10T01:33:03.990Z,11.00
2018-11-10T01:34:10.781Z,10.50
2018-11-10T01:35:17.534Z,9.00
2018-11-10T01:36:24.286Z,9.20
2018-11-10T01:37:31.058Z,10.20
2018-11-10T01:38:37.798Z,10.00
2018-11-10T01:39:44.597Z,9.50
2018-11-10T01:40:51.360Z,8.90
2018-11-10T01:41:58.160Z,10.00
2018-11-10T01:43:04.957Z,9.00
2018-11-10T01:44:11.723Z,9.00
2018-11-10T01:45:18.475Z,9.60
2018-11-10T01:46:25.260Z,10.50
2018-11-10T01:47:32.034Z,7.70
2018-11-10T01:48:38.901Z,8.10
2018-11-10T01:49:45.726Z,9.00
2018-11-10T01:50:52.444Z,8.50
2018-11-10T01:51:59.232Z,9.20
2018-11-10T01:53:06.074Z,9.40
2018-11-10T01:54:12.920Z,8.60
2018-11-10T01:55:19.802Z,10.70
2018-11-10T01:56:26.682Z,10.30
2018-11-10T01:57:33.627Z,9.60
2018-11-10T01:58:40.537Z,7.70
2018-11-10T01:59:47.299Z,7.80
2018-11-10T02:00:54.130Z,8.40
2018-11-10T02:02:00.978Z,8.00
2018-11-10T02:03:07.694Z,7.30
2018-11-10T02:04:14.490Z,8.20
2018-11-10T02:05:21.265Z,7.90
2018-11-10T02:06:28.050Z,7.20
2018-11-10T02:07:34.874Z,7.20
2018-11-10T02:08:41.671Z,6.80
2018-11-10T02:09:48.448Z,8.30
2018-11-10T02:10:55.197Z,7.40
2018-11-10T02:12:02.004Z,6.50
2018-11-10T02:13:08.804Z,6.20
2018-11-10T02:14:15.587Z,6.60
2018-11-10T02:15:22.446Z,7.60
2018-11-10T02:16:29.223Z,6.00
2018-11-10T02:17:36.032Z,6.40
2018-11-10T02:18:43.055Z,6.60
2018-11-10T02:19:49.878Z,6.70
2018-11-10T02:20:56.698Z,6.10
2018-11-10T02:22:03.509Z,6.00
2018-11-10T02:23:10.354Z,5.90
2018-11-10T02:24:17.212Z,5.80
2018-11-10T02:25:24.066Z,6.70
2018-11-10T02:26:30.934Z,5.60
2018-11-10T02:27:37.928Z,6.40
2018-11-10T02:28:44.847Z,5.80
2018-11-10T02:29:51.794Z,6.00
2018-11-10T02:30:58.466Z,6.10
2018-11-10T02:32:05.235Z,5.80
2018-11-10T02:33:12.032Z,6.00
2018-11-10T02:34:18.805Z,5.80
2018-11-10T02:35:25.698Z,6.00
2018-11-10T02:36:32.506Z,5.40
2018-11-10T02:37:39.335Z,6.20
2018-11-10T02:38:46.473Z,6.80
2018-11-10T02:39:53.246Z,5.70
2018-11-10T02:41:00.020Z,6.00
2018-11-10T02:42:06.806Z,5.80
2018-11-10T02:43:14.448Z,7.10
2018-11-10T02:44:20.694Z,6.70
2018-11-10T02:45:27.482Z,5.90
2018-11-10T02:46:34.243Z,5.40
2018-11-10T02:47:40.997Z,5.40
2018-11-10T02:48:47.896Z,5.90
2018-11-10T02:49:54.663Z,6.10
2018-11-10T02:51:01.723Z,5.40
2018-11-10T02:52:08.630Z,5.20
2018-11-10T02:53:15.492Z,5.20
2018-11-10T02:54:22.329Z,5.50
2018-11-10T02:55:29.146Z,6.40
2018-11-10T02:56:36.048Z,5.50
2018-11-10T02:57:42.870Z,5.30
2018-11-10T02:58:49.606Z,5.00
2018-11-10T02:59:56.390Z,5.50
2018-11-10T03:01:03.242Z,5.50
2018-11-10T03:02:10.002Z,5.70
2018-11-10T03:03:16.793Z,6.70
2018-11-10T03:04:23.625Z,4.90
2018-11-10T03:05:30.486Z,5.10
2018-11-10T03:06:37.278Z,4.80
2018-11-10T03:07:44.046Z,4.60
2018-11-10T03:08:50.834Z,4.90
2018-11-10T03:09:57.586Z,4.80
2018-11-10T03:11:04.351Z,4.60
2018-11-10T03:12:11.163Z,5.50
2018-11-10T03:13:17.967Z,4.90
2018-11-10T03:14:24.842Z,5.20
2018-11-10T03:15:31.618Z,5.30
2018-11-10T03:16:38.378Z,5.20
2018-11-10T03:17:45.235Z,5.80
2018-11-10T03:18:52.022Z,7.50
2018-11-10T03:19:58.822Z,5.20
2018-11-10T03:21:05.589Z,5.60
2018-11-10T03:22:12.406Z,5.30
2018-11-10T03:23:19.176Z,4.80
2018-11-10T03:24:25.956Z,5.10
2018-11-10T03:25:32.731Z,5.50
2018-11-10T03:26:39.519Z,4.60
2018-11-10T03:27:46.292Z,5.40
2018-11-10T03:28:53.098Z,5.30
2018-11-10T03:29:59.854Z,4.70
2018-11-10T03:31:06.654Z,5.00
2018-11-10T03:32:13.442Z,5.70
2018-11-10T03:33:20.234Z,4.80
2018-11-10T03:34:27.015Z,4.80
2018-11-10T03:35:33.769Z,4.70
2018-11-10T03:36:40.554Z,5.00
2018-11-10T03:37:47.371Z,4.80
2018-11-10T03:38:54.150Z,4.60
2018-11-10T03:40:00.931Z,4.60
2018-11-10T03:41:07.922Z,4.80
2018-11-10T03:42:14.674Z,4.60
2018-11-10T03:43:21.471Z,5.70
2018-11-10T03:44:28.233Z,4.70
2018-11-10T03:45:35.035Z,4.90
2018-11-10T03:46:41.839Z,4.80
2018-11-10T03:47:48.630Z,4.60
2018-11-10T03:48:55.524Z,5.40
2018-11-10T03:50:02.204Z,4.60
2018-11-10T03:51:09.006Z,4.80
2018-11-10T03:52:15.984Z,5.00
2018-11-10T03:53:22.954Z,4.40
2018-11-10T03:54:29.722Z,4.80
2018-11-10T03:55:36.538Z,5.40
2018-11-10T03:56:43.390Z,4.70
2018-11-10T03:57:50.215Z,4.30
2018-11-10T03:58:57.062Z,5.20
2018-11-10T04:00:03.904Z,5.30
2018-11-10T04:01:10.736Z,4.60
2018-11-10T04:02:17.610Z,4.50
2018-11-10T04:03:24.884Z,4.60
2018-11-10T04:04:31.938Z,5.20
2018-11-10T04:05:38.491Z,5.10
2018-11-10T04:06:45.246Z,4.80
2018-11-10T04:07:52.030Z,4.90
2018-11-10T04:08:58.921Z,4.80
2018-11-10T04:10:05.782Z,5.60
2018-11-10T04:11:12.578Z,4.40
2018-11-10T04:12:19.455Z,5.70
2018-11-10T04:13:26.340Z,4.80
2018-11-10T04:14:33.167Z,5.10
2018-11-10T04:15:39.937Z,4.40
2018-11-10T04:16:46.734Z,4.60
2018-11-10T04:17:53.479Z,4.60
2018-11-10T04:19:00.290Z,4.80
2018-11-10T04:20:07.135Z,4.80
2018-11-10T04:21:14.047Z,4.80
2018-11-10T04:22:20.867Z,5.50
2018-11-10T04:23:27.862Z,6.50
2018-11-10T04:24:34.646Z,4.70
2018-11-10T04:25:41.487Z,4.90
2018-11-10T04:26:48.278Z,4.70
2018-11-10T04:27:55.046Z,4.70
2018-11-10T04:29:02.149Z,4.80
2018-11-10T04:30:09.115Z,5.90
2018-11-10T04:31:15.990Z,5.10
2018-11-10T04:32:22.758Z,4.40
2018-11-10T04:33:29.626Z,4.40
2018-11-10T04:34:36.562Z,5.50
2018-11-10T04:35:43.594Z,6.20
2018-11-10T04:36:50.330Z,4.80
2018-11-10T04:37:57.983Z,4.80
2018-11-10T04:39:04.274Z,5.90
2018-11-10T04:40:11.409Z,4.70
2018-11-10T04:41:18.226Z,6.90
2018-11-10T04:42:24.994Z,5.10
2018-11-10T04:43:31.888Z,4.70
2018-11-10T04:44:38.657Z,5.10
2018-11-10T04:45:45.535Z,5.10
2018-11-10T04:46:52.322Z,5.20
2018-11-10T04:47:59.067Z,5.60
2018-11-10T04:49:05.901Z,4.50
2018-11-10T04:50:12.646Z,6.50
2018-11-10T04:51:19.435Z,4.90
2018-11-10T04:52:26.313Z,5.40
2018-11-10T04:53:33.118Z,6.50
2018-11-10T04:54:43.711Z,4.80
2018-11-10T04:55:46.963Z,5.90
2018-11-10T04:56:53.797Z,4.80
2018-11-10T04:58:00.538Z,4.70
2018-11-10T04:59:07.315Z,4.70
2018-11-10T05:00:14.216Z,5.30
2018-11-10T05:01:21.354Z,4.80
2018-11-10T05:02:28.116Z,5.30
2018-11-10T05:03:34.885Z,5.70
2018-11-10T05:04:41.730Z,4.80
2018-11-10T05:05:48.483Z,5.40
2018-11-10T05:06:58.173Z,4.80
2018-11-10T05:08:02.442Z,4.40
2018-11-10T05:09:09.338Z,5.00
2018-11-10T05:10:16.027Z,4.70
2018-11-10T05:11:22.766Z,5.00
2018-11-10T05:12:29.546Z,5.00
2018-11-10T05:13:36.302Z,4.60
2018-11-10T05:14:43.086Z,5.30
2018-11-10T05:15:49.923Z,5.60
2018-11-10T05:16:56.718Z,4.70
2018-11-10T05:18:03.469Z,5.20
2018-11-10T05:19:10.294Z,4.90
2018-11-10T05:20:17.057Z,4.60
2018-11-10T05:21:23.826Z,5.20
2018-11-10T05:22:30.663Z,6.80
2018-11-10T05:23:37.494Z,5.70
2018-11-10T05:24:44.407Z,4.90
2018-11-10T05:25:51.277Z,4.70
2018-11-10T05:26:58.157Z,5.40
2018-11-10T05:28:04.898Z,5.90
2018-11-10T05:29:11.768Z,4.90
2018-11-10T05:30:18.562Z,4.80
2018-11-10T05:31:25.344Z,4.80
2018-11-10T05:32:32.078Z,5.80
2018-11-10T05:33:38.926Z,5.40
2018-11-10T05:34:45.777Z,4.50
2018-11-10T05:35:52.573Z,4.20
2018-11-10T05:36:59.326Z,5.90
2018-11-10T05:38:06.141Z,4.60
2018-11-10T05:39:12.887Z,4.30
2018-11-10T05:40:19.750Z,5.50
2018-11-10T05:41:26.537Z,4.60
2018-11-10T05:42:33.459Z,4.80
2018-11-10T05:43:40.297Z,6.10
2018-11-10T05:44:47.094Z,4.30
2018-11-10T05:45:53.863Z,4.30
2018-11-10T05:47:00.661Z,5.20
2018-11-10T05:48:07.506Z,4.90
2018-11-10T05:49:14.317Z,4.30
2018-11-10T05:50:21.378Z,4.70
2018-11-10T05:51:28.287Z,4.30
2018-11-10T05:52:35.139Z,4.30
2018-11-10T05:53:42.120Z,5.50
2018-11-10T05:54:49.448Z,4.10
2018-11-10T05:55:55.880Z,4.90
2018-11-10T05:57:02.767Z,4.30
2018-11-10T05:58:09.539Z,4.10
2018-11-10T05:59:16.421Z,4.80
2018-11-10T06:00:23.202Z,4.60
2018-11-10T06:01:29.933Z,5.10
2018-11-10T06:02:36.786Z,4.30
2018-11-10T06:03:43.613Z,6.30
2018-11-10T06:04:50.376Z,4.30
2018-11-10T06:05:57.197Z,5.10
2018-11-10T06:07:04.233Z,5.00
2018-11-10T06:08:11.097Z,5.40
2018-11-10T06:09:18.052Z,5.00
2018-11-10T06:10:25.156Z,4.90
2018-11-10T06:11:31.744Z,5.10
2018-11-10T06:12:38.517Z,4.50
2018-11-10T06:13:45.542Z,5.10
2018-11-10T06:14:52.370Z,5.90
2018-11-10T06:15:59.276Z,6.30
2018-11-10T06:17:06.043Z,5.90
2018-11-10T06:18:13.059Z,4.50
2018-11-10T06:19:19.814Z,5.20
2018-11-10T06:20:26.614Z,5.90
2018-11-10T06:21:33.370Z,4.50
2018-11-10T06:22:40.182Z,4.70
2018-11-10T06:23:47.083Z,5.30
2018-11-10T06:24:53.894Z,5.10
2018-11-10T06:25:23.237Z,4.90
2018-11-10T06:26:29.566Z,5.60
2018-11-10T06:27:36.338Z,4.80
2018-11-10T06:28:43.324Z,7.90
2018-11-10T06:29:50.100Z,5.10
2018-11-10T06:30:56.882Z,6.00
2018-11-10T06:32:03.694Z,5.20
2018-11-10T06:33:10.480Z,5.10
2018-11-10T06:34:17.279Z,5.50
2018-11-10T06:35:24.101Z,6.50
2018-11-10T06:36:30.950Z,5.00
2018-11-10T06:37:37.737Z,5.30
2018-11-10T06:38:44.468Z,4.60
2018-11-10T06:39:51.343Z,4.70
2018-11-10T06:40:58.151Z,6.70
2018-11-10T06:42:04.986Z,5.60
2018-11-10T06:43:11.760Z,5.80
2018-11-10T06:44:18.580Z,6.70
2018-11-10T06:45:25.482Z,4.90
2018-11-10T06:46:32.295Z,5.50
2018-11-10T06:47:39.196Z,4.70
2018-11-10T06:48:46.066Z,4.90
2018-11-10T06:49:52.972Z,5.20
2018-11-10T06:50:59.770Z,5.40
2018-11-10T06:52:06.559Z,6.00
2018-11-10T06:53:13.436Z,5.00
2018-11-10T06:54:20.243Z,4.90
2018-11-10T06:55:27.122Z,5.20
2018-11-10T06:56:34.097Z,4.80
2018-11-10T06:57:41.002Z,5.90
2018-11-10T06:58:47.942Z,5.10
2018-11-10T06:59:54.867Z,5.30
2018-11-10T07:01:01.775Z,5.00
2018-11-10T07:02:08.840Z,5.10
2018-11-10T07:03:15.686Z,7.00
2018-11-10T07:04:22.530Z,6.40
2018-11-10T07:05:29.351Z,5.10
2018-11-10T07:06:36.128Z,5.40
2018-11-10T07:07:42.962Z,6.00
2018-11-10T07:08:49.822Z,5.80
2018-11-10T07:09:56.638Z,5.00
2018-11-10T07:11:03.421Z,5.20
2018-11-10T07:12:10.235Z,6.00
2018-11-10T07:13:17.030Z,5.00
2018-11-10T07:14:23.808Z,5.10
2018-11-10T07:15:30.699Z,6.90
2018-11-10T07:16:37.559Z,5.60
2018-11-10T07:17:44.438Z,7.20
2018-11-10T07:18:51.261Z,5.10
2018-11-10T07:19:58.123Z,5.20
2018-11-10T07:21:04.998Z,5.40
2018-11-10T07:22:11.806Z,5.50
2018-11-10T07:23:18.626Z,5.00
2018-11-10T07:24:25.446Z,4.50
2018-11-10T07:25:32.260Z,5.40
2018-11-10T07:26:39.018Z,5.20
2018-11-10T07:27:45.794Z,4.50
2018-11-10T07:28:52.597Z,4.20
2018-11-10T07:29:59.385Z,4.50
2018-11-10T07:31:06.278Z,4.70
2018-11-10T07:32:13.139Z,4.50
2018-11-10T07:33:19.919Z,6.20
2018-11-10T07:34:26.761Z,4.60
2018-11-10T07:35:33.638Z,4.40
2018-11-10T07:36:40.428Z,3.90
2018-11-10T07:37:47.233Z,4.00
2018-11-10T07:38:54.026Z,3.90
2018-11-10T07:40:01.251Z,4.70
2018-11-10T07:41:07.922Z,4.20
2018-11-10T07:42:14.730Z,5.20
2018-11-10T07:43:21.594Z,4.30
2018-11-10T07:44:28.478Z,4.50
2018-11-10T07:45:35.282Z,5.30
2018-11-10T07:46:42.190Z,4.40
2018-11-10T07:47:49.066Z,4.50
2018-11-10T07:48:56.031Z,5.30
2018-11-10T07:50:02.806Z,4.70
2018-11-10T07:51:09.836Z,4.30
2018-11-10T07:52:16.802Z,4.20
2018-11-10T07:53:23.740Z,4.70
2018-11-10T07:54:30.771Z,4.00
2018-11-10T07:55:37.731Z,4.70
2018-11-10T07:56:44.551Z,4.90
2018-11-10T07:57:51.421Z,4.00
2018-11-10T07:58:58.283Z,6.60
2018-11-10T08:00:05.126Z,4.00
2018-11-10T08:01:12.166Z,4.30
2018-11-10T08:02:19.002Z,4.20
2018-11-10T08:03:25.887Z,5.40
2018-11-10T08:04:32.800Z,4.40
2018-11-10T08:05:39.751Z,4.60
2018-11-10T08:06:46.553Z,4.50
2018-11-10T08:07:53.462Z,4.20
2018-11-10T08:09:00.335Z,5.70
2018-11-10T08:10:07.056Z,4.40
2018-11-10T08:11:13.840Z,5.50
2018-11-10T08:12:20.695Z,5.10
2018-11-10T08:13:27.643Z,4.50
2018-11-10T08:14:34.506Z,4.70
2018-11-10T08:15:41.723Z,5.20
2018-11-10T08:16:49.387Z,4.50
2018-11-10T08:17:55.272Z,4.90
2018-11-10T08:19:02.128Z,4.90
2018-11-10T08:20:08.904Z,5.50
2018-11-10T08:21:16.032Z,4.80
2018-11-10T08:22:22.999Z,5.20
2018-11-10T08:23:29.939Z,4.70
2018-11-10T08:24:36.786Z,5.10
2018-11-10T08:25:43.670Z,6.50
2018-11-10T08:26:50.531Z,5.40
2018-11-10T08:27:57.338Z,5.50
2018-11-10T08:29:04.183Z,7.00
2018-11-10T08:30:11.023Z,6.80
2018-11-10T08:31:18.000Z,6.10
2018-11-10T08:32:24.739Z,6.40
2018-11-10T08:33:31.679Z,6.60
2018-11-10T08:34:38.530Z,6.60
2018-11-10T08:35:45.458Z,6.20
2018-11-10T08:36:52.339Z,6.30
2018-11-10T08:37:59.151Z,5.70
2018-11-10T08:39:06.040Z,6.50
2018-11-10T08:40:12.895Z,6.10
2018-11-10T08:41:20.034Z,5.80
2018-11-10T08:42:26.870Z,6.60
2018-11-10T08:42:45.737Z,5.90
2018-11-10T08:43:52.507Z,6.00
2018-11-10T08:44:59.410Z,5.90
2018-11-10T08:46:06.307Z,6.00
2018-11-10T08:47:13.179Z,6.50
2018-11-10T08:48:20.159Z,4.80
2018-11-10T08:49:26.935Z,4.10
2018-11-10T08:50:33.736Z,3.70
2018-11-10T08:51:40.831Z,3.60
2018-11-10T08:52:47.782Z,4.20
2018-11-10T08:53:54.702Z,4.10
2018-11-10T08:55:01.620Z,3.90
2018-11-10T08:56:10.582Z,3.90
2018-11-10T08:57:15.430Z,3.90
2018-11-10T08:58:22.182Z,3.40
2018-11-10T08:59:28.965Z,3.30
2018-11-10T09:00:35.850Z,3.80
2018-11-10T09:01:42.733Z,3.20
2018-11-10T09:02:49.571Z,4.60
2018-11-10T09:03:56.459Z,3.80
2018-11-10T09:05:03.267Z,5.80
2018-11-10T09:06:10.110Z,3.30
2018-11-10T09:07:17.012Z,3.40
2018-11-10T09:08:23.890Z,3.90
2018-11-10T09:09:30.740Z,3.30
2018-11-10T09:10:37.615Z,3.10
2018-11-10T09:11:44.427Z,3.50
2018-11-10T09:12:51.241Z,3.30
2018-11-10T09:13:58.142Z,3.40
2018-11-10T09:15:05.014Z,3.10
2018-11-10T09:16:12.050Z,3.50
2018-11-10T09:17:18.928Z,3.20
2018-11-10T09:18:25.833Z,3.40
2018-11-10T09:19:32.729Z,3.30
2018-11-10T09:20:39.558Z,3.60
2018-11-10T09:21:46.355Z,3.60
2018-11-10T09:22:53.164Z,3.20
2018-11-10T09:24:00.073Z,3.60
2018-11-10T09:25:06.972Z,3.60
2018-11-10T09:26:13.842Z,3.40
2018-11-10T09:27:20.625Z,3.90
2018-11-10T09:28:27.490Z,2.60
2018-11-10T09:29:34.258Z,3.00
2018-11-10T09:30:41.119Z,3.30
2018-11-10T09:31:47.994Z,2.80
2018-11-10T09:32:54.840Z,3.40
2018-11-10T09:34:05.873Z,3.10
2018-11-10T09:35:08.790Z,3.30
2018-11-10T09:36:15.930Z,3.30
2018-11-10T09:37:22.731Z,3.50
2018-11-10T09:38:29.614Z,2.90
2018-11-10T09:39:36.435Z,2.80
2018-11-10T09:40:43.254Z,4.80
2018-11-10T09:41:50.143Z,6.80
2018-11-10T09:42:57.043Z,6.60
2018-11-10T09:44:03.912Z,6.50
2018-11-10T09:45:10.811Z,7.00
2018-11-10T09:46:18.059Z,3.20
2018-11-10T09:47:25.035Z,3.30
2018-11-10T09:48:31.889Z,4.10
2018-11-10T09:49:38.763Z,4.10
2018-11-10T09:50:46.166Z,2.90
2018-11-10T09:51:52.838Z,3.50
2018-11-10T09:52:59.737Z,3.20
2018-11-10T09:54:06.614Z,3.30
2018-11-10T09:55:13.483Z,3.30
2018-11-10T09:56:20.339Z,3.00
2018-11-10T09:57:27.179Z,3.30
2018-11-10T09:58:34.046Z,3.30
2018-11-10T09:59:41.095Z,3.40
2018-11-10T10:00:47.975Z,3.70
2018-11-10T10:01:54.990Z,2.90
2018-11-10T10:03:01.786Z,3.10
2018-11-10T10:04:08.692Z,3.90
2018-11-10T10:05:15.568Z,4.30
2018-11-10T10:06:22.614Z,3.40
2018-11-10T10:07:29.532Z,3.80
2018-11-10T10:08:36.438Z,3.50
2018-11-10T10:09:44.333Z,3.60
2018-11-10T10:10:50.159Z,3.20
2018-11-10T10:11:57.063Z,3.20
2018-11-10T10:13:03.965Z,3.80
2018-11-10T10:14:10.791Z,3.70
2018-11-10T10:15:17.678Z,3.70
2018-11-10T10:16:24.839Z,4.10
2018-11-10T10:17:31.619Z,4.00
2018-11-10T10:18:38.523Z,4.00
2018-11-10T10:19:45.382Z,4.30
2018-11-10T10:20:52.298Z,5.30
2018-11-10T10:21:59.048Z,5.10
2018-11-10T10:23:05.807Z,4.60
2018-11-10T10:24:12.686Z,4.60
2018-11-10T10:25:19.515Z,5.40
2018-11-10T10:26:26.333Z,5.00
2018-11-10T10:27:33.199Z,4.70
2018-11-10T10:28:40.160Z,5.40
2018-11-10T10:29:46.846Z,4.70
2018-11-10T10:30:53.847Z,5.20
2018-11-10T10:32:00.725Z,5.10
2018-11-10T10:33:07.785Z,5.00
2018-11-10T10:34:14.665Z,5.00
2018-11-10T10:35:21.668Z,5.50
2018-11-10T10:36:28.439Z,5.10
2018-11-10T10:37:35.304Z,5.30
2018-11-10T10:38:42.203Z,5.80
2018-11-10T10:39:49.058Z,5.70
2018-11-10T10:40:55.917Z,5.60
2018-11-10T10:42:02.772Z,5.50
2018-11-10T10:43:09.797Z,5.80
2018-11-10T10:44:16.539Z,6.10
2018-11-10T10:45:23.432Z,6.70
2018-11-10T10:46:30.307Z,6.00
2018-11-10T10:47:37.194Z,5.60
2018-11-10T10:48:44.131Z,5.40
2018-11-10T10:49:50.956Z,5.50
2018-11-10T10:50:57.832Z,5.60
2018-11-10T10:52:04.748Z,5.40
2018-11-10T10:53:11.607Z,5.30
2018-11-10T10:54:18.476Z,5.50
2018-11-10T10:55:25.495Z,6.00
2018-11-10T10:56:32.427Z,5.40
2018-11-10T10:57:39.180Z,4.80
2018-11-10T10:58:46.282Z,4.90
2018-11-10T10:59:53.210Z,5.50
2018-11-10T11:01:00.031Z,4.90
2018-11-10T11:02:06.818Z,5.40
2018-11-10T11:03:13.851Z,5.20
2018-11-10T11:04:20.910Z,5.20
2018-11-10T11:05:27.809Z,4.40
2018-11-10T11:06:34.811Z,4.40
2018-11-10T11:07:41.587Z,4.60
2018-11-10T11:08:48.472Z,4.40
2018-11-10T11:09:55.231Z,4.40
2018-11-10T11:11:02.050Z,4.40
2018-11-10T11:12:09.038Z,4.40
2018-11-10T11:13:15.854Z,4.30
2018-11-10T11:14:22.711Z,4.60
2018-11-10T11:15:29.741Z,4.40
2018-11-10T11:16:36.524Z,4.80
2018-11-10T11:17:43.471Z,4.30
2018-11-10T11:18:50.324Z,5.10
2018-11-10T11:20:00.355Z,4.40
2018-11-10T11:21:04.201Z,4.40
2018-11-10T11:22:10.966Z,4.60
2018-11-10T11:23:17.719Z,4.40
2018-11-10T11:24:24.502Z,4.60
2018-11-10T11:25:31.483Z,4.60
2018-11-10T11:26:38.291Z,4.60
2018-11-10T11:27:45.091Z,4.90
2018-11-10T11:28:51.922Z,4.40
2018-11-10T11:29:58.751Z,4.70
2018-11-10T11:31:05.667Z,4.60
2018-11-10T11:32:12.455Z,4.50
2018-11-10T11:33:19.230Z,4.70
2018-11-10T11:34:26.048Z,4.80
2018-11-10T11:35:32.967Z,4.10
2018-11-10T11:36:39.794Z,4.40
2018-11-10T11:37:46.661Z,4.70
2018-11-10T11:38:53.528Z,4.20
2018-11-10T11:40:00.395Z,4.10
2018-11-10T11:41:07.307Z,4.10
2018-11-10T11:42:14.162Z,4.10
2018-11-10T11:43:20.981Z,4.40
2018-11-10T11:44:27.786Z,4.70
2018-11-10T11:45:34.570Z,4.50
2018-11-10T11:46:41.357Z,3.80
2018-11-10T11:47:48.153Z,4.30
2018-11-10T11:48:55.029Z,3.50
2018-11-10T11:50:01.949Z,3.60
2018-11-10T11:51:08.947Z,3.90
2018-11-10T11:52:15.743Z,3.60
2018-11-10T11:53:22.623Z,3.90
2018-11-10T11:54:29.742Z,3.70
2018-11-10T11:55:36.551Z,4.10
2018-11-10T11:56:43.351Z,3.30
2018-11-10T11:57:50.150Z,3.30
2018-11-10T11:58:56.882Z,3.60
2018-11-10T12:00:03.766Z,3.30
2018-11-10T12:01:10.742Z,3.60
2018-11-10T12:02:17.548Z,4.30
2018-11-10T12:03:24.280Z,4.10
2018-11-10T12:04:31.169Z,4.10
2018-11-10T12:05:38.050Z,3.20
2018-11-10T12:06:44.879Z,3.00
2018-11-10T12:07:51.634Z,3.60
2018-11-10T12:08:58.431Z,3.70
2018-11-10T12:10:05.267Z,3.50
2018-11-10T12:11:12.237Z,3.40
2018-11-10T12:12:19.058Z,3.20
2018-11-10T12:13:26.002Z,3.50
2018-11-10T12:14:33.067Z,3.20
2018-11-10T12:15:39.790Z,3.10
2018-11-10T12:16:46.618Z,3.20
2018-11-10T12:17:53.547Z,3.40
2018-11-10T12:19:00.455Z,3.20
2018-11-10T12:20:07.358Z,3.60
2018-11-10T12:21:14.365Z,3.40
2018-11-10T12:22:21.144Z,3.80
2018-11-10T12:23:28.161Z,3.50
2018-11-10T12:24:35.088Z,3.60
2018-11-10T12:25:42.276Z,4.20
2018-11-10T12:26:49.219Z,4.90
2018-11-10T12:27:55.858Z,3.50
2018-11-10T12:29:02.915Z,3.50
2018-11-10T12:30:09.737Z,3.40
2018-11-10T12:31:16.466Z,3.90
2018-11-10T12:32:23.444Z,3.30
2018-11-10T12:33:30.192Z,3.40
2018-11-10T12:34:37.048Z,3.60
2018-11-10T12:35:43.869Z,5.20
2018-11-10T12:36:50.725Z,3.70
2018-11-10T12:37:57.647Z,3.80
2018-11-10T12:39:05.939Z,4.30
2018-11-10T12:40:11.232Z,4.00
2018-11-10T12:41:17.894Z,4.00
2018-11-10T12:42:24.707Z,4.10
2018-11-10T12:43:32.170Z,4.00
2018-11-10T12:44:38.683Z,4.20
2018-11-10T12:45:45.789Z,3.90
2018-11-10T12:46:52.774Z,3.60
2018-11-10T12:47:59.674Z,3.70
2018-11-10T12:49:06.640Z,3.40
2018-11-10T12:50:13.776Z,3.00
2018-11-10T12:51:20.617Z,3.70
2018-11-10T12:52:27.486Z,3.90
2018-11-10T12:53:34.379Z,3.60
2018-11-10T12:54:41.279Z,4.40
2018-11-10T12:55:48.122Z,3.60
2018-11-10T12:56:54.978Z,3.50
2018-11-10T12:58:01.834Z,3.80
2018-11-10T12:59:08.718Z,4.00
2018-11-10T13:00:15.549Z,3.70
2018-11-10T13:01:22.471Z,3.40
2018-11-10T13:02:29.315Z,2.90
2018-11-10T13:03:36.129Z,3.10
2018-11-10T13:04:42.918Z,4.00
2018-11-10T13:05:49.742Z,3.40
2018-11-10T13:06:56.596Z,3.80
2018-11-10T13:08:03.426Z,3.50
2018-11-10T13:09:10.317Z,4.40
2018-11-10T13:10:16.952Z,3.20
2018-11-10T13:11:23.893Z,3.90
2018-11-10T13:12:31.068Z,3.70
2018-11-10T13:13:37.327Z,3.40
2018-11-10T13:14:44.116Z,3.40
2018-11-10T13:15:50.933Z,3.70
2018-11-10T13:16:57.759Z,3.50
2018-11-10T13:18:04.566Z,3.00
2018-11-10T13:19:11.342Z,3.40
2018-11-10T13:20:18.102Z,3.40
2018-11-10T13:21:24.894Z,3.30
2018-11-10T13:22:31.683Z,3.20
2018-11-10T13:23:38.494Z,3.40
2018-11-10T13:24:45.270Z,3.20
2018-11-10T13:25:52.133Z,3.00
2018-11-10T13:26:58.957Z,3.40
2018-11-10T13:28:05.828Z,3.30
2018-11-10T13:29:12.691Z,3.90
2018-11-10T13:30:19.511Z,3.30
2018-11-10T13:31:26.540Z,3.40
2018-11-10T13:32:33.224Z,3.40
2018-11-10T13:33:40.147Z,3.20
2018-11-10T13:34:46.922Z,3.20
2018-11-10T13:35:53.710Z,3.20
2018-11-10T13:37:00.551Z,2.70
2018-11-10T13:38:07.382Z,3.00
2018-11-10T13:39:14.344Z,3.00
2018-11-10T13:40:21.090Z,3.40
2018-11-10T13:41:27.866Z,3.20
2018-11-10T13:42:34.686Z,3.70
2018-11-10T13:43:41.537Z,3.10
2018-11-10T13:44:48.346Z,3.50
2018-11-10T13:45:55.184Z,3.00
2018-11-10T13:47:02.047Z,2.90
2018-11-10T13:48:08.903Z,3.00
2018-11-10T13:49:15.793Z,3.10
2018-11-10T13:50:22.683Z,3.10
2018-11-10T13:51:29.637Z,3.90
2018-11-10T13:52:36.923Z,3.20
2018-11-10T13:53:43.483Z,3.10
2018-11-10T13:54:50.362Z,2.70
2018-11-10T13:55:57.238Z,2.90
2018-11-10T13:57:04.075Z,3.00
2018-11-10T13:58:10.964Z,2.80
2018-11-10T13:59:17.831Z,3.40
2018-11-10T14:00:24.665Z,2.70
2018-11-10T14:01:31.459Z,3.20
2018-11-10T14:02:38.442Z,2.80
2018-11-10T14:03:46.282Z,3.00
2018-11-10T14:04:52.162Z,2.50
2018-11-10T14:05:59.119Z,2.90
2018-11-10T14:07:06.240Z,3.30
2018-11-10T14:08:13.075Z,3.10
2018-11-10T14:09:19.932Z,2.60
2018-11-10T14:10:26.897Z,2.60
2018-11-10T14:11:33.713Z,2.40
2018-11-10T14:12:40.569Z,3.30
2018-11-10T14:13:47.280Z,3.00
2018-11-10T14:14:54.117Z,2.90
2018-11-10T14:16:00.974Z,3.80
2018-11-10T14:17:07.749Z,2.90
2018-11-10T14:18:14.501Z,2.60
2018-11-10T14:19:21.614Z,3.70
2018-11-10T14:20:28.465Z,2.70
2018-11-10T14:21:35.393Z,3.00
2018-11-10T14:22:43.278Z,3.10
2018-11-10T14:23:49.550Z,3.00
2018-11-10T14:24:56.483Z,2.70
2018-11-10T14:26:03.355Z,3.70
2018-11-10T14:27:10.303Z,2.70
2018-11-10T14:28:17.341Z,2.90
2018-11-10T14:29:25.415Z,2.80
2018-11-10T14:30:31.088Z,2.80
2018-11-10T14:31:38.078Z,2.80
2018-11-10T14:32:46.802Z,2.90
2018-11-10T14:33:51.888Z,2.90
2018-11-10T14:34:58.815Z,3.20
2018-11-10T14:36:05.811Z,2.90
2018-11-10T14:37:12.725Z,3.10
2018-11-10T14:38:19.545Z,2.90
2018-11-10T14:39:26.478Z,3.00
2018-11-10T14:40:33.318Z,3.60
2018-11-10T14:41:40.158Z,3.00
2018-11-10T14:42:46.971Z,2.80
2018-11-10T14:43:53.760Z,3.30
2018-11-10T14:45:00.535Z,3.40